createdAt,value
2018-06-16T00:02:08.372Z,54.18
2018-06-16T00:04:38.819Z,54.20
2018-06-16T00:07:09.275Z,54.72
2018-06-16T00:09:39.683Z,53.88
2018-06-16T00:12:09.753Z,54.42
2018-06-16T00:14:40.031Z,53.75
2018-06-16T00:17:10.336Z,53.88
2018-06-16T00:19:40.867Z,54.83
2018-06-16T00:22:12.234Z,54.13
2018-06-16T00:24:42.797Z,53.61
2018-06-16T00:27:13.240Z,54.00
2018-06-16T00:29:43.762Z,53.79
2018-06-16T00:32:14.108Z,54.19
2018-06-16T00:34:44.501Z,53.40
2018-06-16T00:37:14.712Z,53.37
2018-06-16T00:39:45.040Z,53.63
2018-06-16T00:42:15.955Z,53.71
2018-06-16T00:44:46.673Z,53.26
2018-06-16T00:47:16.724Z,53.79
2018-06-16T00:49:47.438Z,54.20
2018-06-16T00:52:17.690Z,53.60
2018-06-16T00:54:48.414Z,53.68
2018-06-16T00:57:29.756Z,54.11
2018-06-16T00:59:59.784Z,53.73
2018-06-16T01:02:30.165Z,53.55
2018-06-16T01:05:00.441Z,54.36
2018-06-16T01:07:30.868Z,53.63
2018-06-16T01:10:00.888Z,54.84
2018-06-16T01:12:31.157Z,54.21
2018-06-16T01:15:01.441Z,54.29
2018-06-16T01:17:31.685Z,54.52
2018-06-16T01:20:02.664Z,54.14
2018-06-16T01:22:33.172Z,54.04
2018-06-16T01:25:09.946Z,53.65
2018-06-16T01:27:40.139Z,53.37
2018-06-16T01:30:10.500Z,54.39
2018-06-16T01:32:40.979Z,53.70
2018-06-16T01:35:11.305Z,54.28
2018-06-16T01:37:41.863Z,53.81
2018-06-16T01:40:12.119Z,54.07
2018-06-16T01:42:43.028Z,54.16
2018-06-16T01:45:13.440Z,54.07
2018-06-16T01:47:43.843Z,53.81
2018-06-16T01:50:14.578Z,54.42
2018-06-16T01:52:44.990Z,54.28
2018-06-16T01:55:15.544Z,54.15
2018-06-16T01:57:45.964Z,54.42
2018-06-16T02:00:16.404Z,54.20
2018-06-16T02:02:46.879Z,54.28
2018-06-16T02:05:17.769Z,53.87
2018-06-16T02:07:48.062Z,54.43
2018-06-16T02:10:18.222Z,54.56
2018-06-16T02:12:48.492Z,54.39
2018-06-16T02:15:18.811Z,54.31
2018-06-16T02:17:49.211Z,54.41
2018-06-16T02:20:19.524Z,55.29
2018-06-16T02:22:49.582Z,54.48
2018-06-16T02:25:20.131Z,54.75
2018-06-16T02:27:50.860Z,54.92
2018-06-16T02:30:21.346Z,55.09
2018-06-16T02:32:51.480Z,54.58
2018-06-16T02:35:21.763Z,55.64
2018-06-16T02:37:52.559Z,55.66
2018-06-16T02:40:23.002Z,55.04
2018-06-16T02:42:53.228Z,55.48
2018-06-16T02:45:23.758Z,55.18
2018-06-16T02:47:54.417Z,55.39
2018-06-16T02:50:24.822Z,55.89
2018-06-16T02:52:55.726Z,56.03
2018-06-16T02:55:26.255Z,56.24
2018-06-16T02:57:56.741Z,56.20
2018-06-16T03:00:27.166Z,55.75
2018-06-16T03:02:57.698Z,56.58
2018-06-16T03:05:28.344Z,56.56
2018-06-16T03:07:58.745Z,56.21
2018-06-16T03:10:29.359Z,56.81
2018-06-16T03:12:59.748Z,56.49
2018-06-16T03:15:29.991Z,56.82
2018-06-16T03:18:00.564Z,56.39
2018-06-16T03:20:31.007Z,56.86
2018-06-16T03:23:01.380Z,56.11
2018-06-16T03:25:31.899Z,56.12
2018-06-16T03:28:02.116Z,56.27
2018-06-16T03:30:32.365Z,56.21
2018-06-16T03:33:02.526Z,56.00
2018-06-16T03:35:32.926Z,56.18
2018-06-16T03:38:03.163Z,56.56
2018-06-16T03:40:33.322Z,55.91
2018-06-16T03:43:03.503Z,56.44
2018-06-16T03:45:34.723Z,55.80
2018-06-16T03:48:05.105Z,56.11
2018-06-16T03:50:35.407Z,55.54
2018-06-16T03:53:05.857Z,56.26
2018-06-16T03:55:36.830Z,55.79
2018-06-16T03:58:07.123Z,55.58
2018-06-16T04:00:37.614Z,55.99
2018-06-16T04:03:07.929Z,55.83
2018-06-16T04:05:39.299Z,55.05
2018-06-16T04:08:09.596Z,55.63
2018-06-16T04:10:40.159Z,55.74
2018-06-16T04:13:10.470Z,55.11
2018-06-16T04:15:41.219Z,55.27
2018-06-16T04:18:11.651Z,54.86
2018-06-16T04:20:42.119Z,55.22
2018-06-16T04:23:12.447Z,55.33
2018-06-16T04:25:42.959Z,55.46
2018-06-16T04:28:13.137Z,55.13
2018-06-16T04:30:43.400Z,55.08
2018-06-16T04:33:13.817Z,55.39
2018-06-16T04:35:44.338Z,55.69
2018-06-16T04:38:15.039Z,55.08
2018-06-16T04:40:45.593Z,54.87
2018-06-16T04:43:16.011Z,55.01
2018-06-16T04:45:47.042Z,55.21
2018-06-16T04:48:17.364Z,55.27
2018-06-16T04:50:48.361Z,54.79
2018-06-16T04:53:19.146Z,55.60
2018-06-16T04:55:49.543Z,54.95
2018-06-16T04:58:19.656Z,55.12
2018-06-16T05:00:50.316Z,54.98
2018-06-16T05:03:20.492Z,54.97
2018-06-16T05:05:51.027Z,55.40
2018-06-16T05:08:21.562Z,55.46
2018-06-16T05:10:52.398Z,54.98
2018-06-16T05:13:22.691Z,55.03
2018-06-16T05:15:53.173Z,55.21
2018-06-16T05:18:23.523Z,55.22
2018-06-16T05:20:54.661Z,54.92
2018-06-16T05:23:25.120Z,55.65
2018-06-16T05:25:55.675Z,55.34
2018-06-16T05:28:26.053Z,54.93
2018-06-16T05:30:56.248Z,54.75
2018-06-16T05:33:26.885Z,54.50
2018-06-16T05:35:57.324Z,54.83
2018-06-16T05:38:27.730Z,54.14
2018-06-16T05:40:58.270Z,54.69
2018-06-16T05:43:28.413Z,54.77
2018-06-16T05:45:58.870Z,54.43
2018-06-16T05:48:29.589Z,54.77
2018-06-16T05:50:59.770Z,53.97
2018-06-16T05:53:30.744Z,53.93
2018-06-16T05:56:01.864Z,54.30
2018-06-16T05:58:32.199Z,54.11
2018-06-16T06:01:02.592Z,54.72
2018-06-16T06:03:33.005Z,54.75
2018-06-16T06:06:03.273Z,53.61
2018-06-16T06:08:34.239Z,53.42
2018-06-16T06:11:04.414Z,53.90
2018-06-16T06:13:34.598Z,53.66
2018-06-16T06:16:05.241Z,53.85
2018-06-16T06:18:35.587Z,53.39
2018-06-16T06:21:05.757Z,53.25
2018-06-16T06:23:36.014Z,53.00
2018-06-16T06:26:06.337Z,53.20
2018-06-16T06:28:37.703Z,53.00
2018-06-16T06:31:08.221Z,52.77
2018-06-16T06:33:38.491Z,52.23
2018-06-16T06:36:08.947Z,51.97
2018-06-16T06:38:39.160Z,52.25
2018-06-16T06:41:09.557Z,52.10
2018-06-16T06:43:40.025Z,52.46
2018-06-16T06:46:10.602Z,52.66
2018-06-16T06:48:41.110Z,52.59
2018-06-16T06:51:11.547Z,52.66
2018-06-16T06:53:41.712Z,53.14
2018-06-16T06:56:11.903Z,53.06
2018-06-16T06:58:42.212Z,53.57
2018-06-16T07:01:12.527Z,53.09
2018-06-16T07:03:42.991Z,52.56
2018-06-16T07:06:13.235Z,52.55
2018-06-16T07:08:43.795Z,52.20
2018-06-16T07:11:14.542Z,52.81
2018-06-16T07:13:45.254Z,53.27
2018-06-16T07:16:15.531Z,52.83
2018-06-16T07:18:46.548Z,53.39
2018-06-16T07:21:17.037Z,52.42
2018-06-16T07:23:47.240Z,53.02
2018-06-16T07:26:17.504Z,53.06
2018-06-16T07:28:47.720Z,52.51
2018-06-16T07:31:18.219Z,52.86
2018-06-16T07:33:48.345Z,53.20
2018-06-16T07:36:18.958Z,52.93
2018-06-16T07:38:49.195Z,53.17
2018-06-16T07:41:19.562Z,52.16
2018-06-16T07:43:50.451Z,52.60
2018-06-16T07:46:20.630Z,52.65
2018-06-16T07:48:51.119Z,52.92
2018-06-16T07:51:21.351Z,52.83
2018-06-16T07:53:51.562Z,52.28
2018-06-16T07:56:21.844Z,52.13
2018-06-16T07:58:52.659Z,52.58
2018-06-16T08:01:23.418Z,52.10
2018-06-16T08:03:53.831Z,51.92
2018-06-16T08:06:24.169Z,52.45
2018-06-16T08:08:54.570Z,52.12
2018-06-16T08:11:25.328Z,51.78
2018-06-16T08:13:55.595Z,51.54
2018-06-16T08:16:26.253Z,51.71
2018-06-16T08:18:57.787Z,51.97
2018-06-16T08:21:28.215Z,51.46
2018-06-16T08:23:58.555Z,51.11
2018-06-16T08:26:29.047Z,51.20
2018-06-16T08:28:59.705Z,50.58
2018-06-16T08:31:30.165Z,50.81
2018-06-16T08:34:00.431Z,50.45
2018-06-16T08:36:30.963Z,50.85
2018-06-16T08:39:02.010Z,50.70
2018-06-16T08:41:32.055Z,50.82
2018-06-16T08:44:02.500Z,49.62
2018-06-16T08:46:32.845Z,49.99
2018-06-16T08:49:03.195Z,48.92
2018-06-16T08:51:35.463Z,48.89
2018-06-16T08:54:06.469Z,48.94
2018-06-16T08:56:36.898Z,49.63
2018-06-16T08:59:07.050Z,49.43
2018-06-16T09:01:37.317Z,48.18
2018-06-16T09:04:07.614Z,48.98
2018-06-16T09:06:37.736Z,48.02
2018-06-16T09:09:09.226Z,48.75
2018-06-16T09:11:40.260Z,48.03
2018-06-16T09:14:10.193Z,48.34
2018-06-16T09:16:40.586Z,48.48
2018-06-16T09:19:10.893Z,47.71
2018-06-16T09:21:41.377Z,46.84
2018-06-16T09:24:11.706Z,47.03
2018-06-16T09:26:42.022Z,46.84
2018-06-16T09:29:12.351Z,46.91
2018-06-16T09:31:42.866Z,46.11
2018-06-16T09:34:13.622Z,45.39
2018-06-16T09:36:44.061Z,45.25
2018-06-16T09:39:14.446Z,44.12
2018-06-16T09:41:44.883Z,44.13
2018-06-16T09:44:15.157Z,43.89
2018-06-16T09:46:45.447Z,42.40
2018-06-16T09:49:15.806Z,43.00
2018-06-16T09:51:46.005Z,42.07
2018-06-16T09:54:16.292Z,41.36
2018-06-16T09:56:47.369Z,40.69
2018-06-16T09:59:17.513Z,40.36
2018-06-16T10:01:47.931Z,38.46
2018-06-16T10:04:18.312Z,38.68
2018-06-16T10:06:48.660Z,38.46
2018-06-16T10:09:19.331Z,39.62
2018-06-16T10:11:49.932Z,38.79
2018-06-16T10:14:20.473Z,38.44
2018-06-16T10:16:50.815Z,37.34
2018-06-16T10:19:21.147Z,36.50
2018-06-16T10:21:51.391Z,35.95
2018-06-16T10:24:21.504Z,36.41
2018-06-16T10:26:51.738Z,36.04
2018-06-16T10:29:21.947Z,34.93
2018-06-16T10:31:52.843Z,35.18
2018-06-16T10:34:23.211Z,35.22
2018-06-16T10:36:53.425Z,34.24
2018-06-16T10:39:23.762Z,33.51
2018-06-16T10:41:53.856Z,33.12
2018-06-16T10:44:24.330Z,33.09
2018-06-16T10:46:54.723Z,32.68
2018-06-16T10:49:25.065Z,33.07
2018-06-16T10:51:55.275Z,33.87
2018-06-16T10:54:25.828Z,33.85
2018-06-16T10:56:56.924Z,33.95
2018-06-16T10:59:27.372Z,35.24
2018-06-16T11:01:57.725Z,34.05
2018-06-16T11:04:27.988Z,34.46
2018-06-16T11:06:58.500Z,34.59
2018-06-16T11:09:29.113Z,34.36
2018-06-16T11:11:59.207Z,34.24
2018-06-16T11:14:29.580Z,35.14
2018-06-16T11:17:00.125Z,35.66
2018-06-16T11:19:30.363Z,35.14
2018-06-16T11:22:00.589Z,35.90
2018-06-16T11:24:32.684Z,34.97
2018-06-16T11:27:03.127Z,35.65
2018-06-16T11:29:33.473Z,35.08
2018-06-16T11:32:03.755Z,35.76
2018-06-16T11:34:33.915Z,35.77
2018-06-16T11:37:04.255Z,36.03
2018-06-16T11:39:34.497Z,35.53
2018-06-16T11:42:04.911Z,35.51
2018-06-16T11:44:35.384Z,35.12
2018-06-16T11:47:05.758Z,35.11
2018-06-16T11:49:36.085Z,35.16
2018-06-16T11:52:06.447Z,35.35
2018-06-16T11:54:36.986Z,34.54
2018-06-16T11:57:07.576Z,35.68
2018-06-16T11:59:38.047Z,35.33
2018-06-16T12:02:08.575Z,35.69
2018-06-16T12:04:39.431Z,36.93
2018-06-16T12:07:10.996Z,36.62
2018-06-16T12:09:40.972Z,37.53
2018-06-16T12:12:11.417Z,38.94
2018-06-16T12:14:41.592Z,40.28
2018-06-16T12:17:11.839Z,40.38
2018-06-16T12:19:42.308Z,41.74
2018-06-16T12:22:12.935Z,41.66
2018-06-16T12:24:43.324Z,42.32
2018-06-16T12:27:13.980Z,42.34
2018-06-16T12:29:44.284Z,42.06
2018-06-16T12:32:14.931Z,42.46
2018-06-16T12:34:46.064Z,43.61
2018-06-16T12:37:16.528Z,43.02
2018-06-16T12:39:46.768Z,43.02
2018-06-16T12:42:17.276Z,43.09
2018-06-16T12:44:47.465Z,43.33
2018-06-16T12:47:21.035Z,43.62
2018-06-16T12:49:51.622Z,44.03
2018-06-16T12:52:21.811Z,43.14
2018-06-16T12:54:52.232Z,44.00
2018-06-16T12:57:22.971Z,42.99
2018-06-16T12:59:53.656Z,42.72
2018-06-16T13:02:24.737Z,42.60
2018-06-16T13:04:55.962Z,42.36
2018-06-16T13:07:26.543Z,42.21
2018-06-16T13:09:58.906Z,42.87
2018-06-16T13:12:29.356Z,42.52
2018-06-16T13:14:59.614Z,42.24
2018-06-16T13:17:30.069Z,42.17
2018-06-16T13:20:00.436Z,41.29
2018-06-16T13:22:30.986Z,40.84
2018-06-16T13:25:02.384Z,40.77
2018-06-16T13:27:32.688Z,40.00
2018-06-16T13:30:03.387Z,39.70
2018-06-16T13:32:33.651Z,40.08
2018-06-16T13:35:10.467Z,39.93
2018-06-16T13:37:41.436Z,40.15
2018-06-16T13:40:11.869Z,40.40
2018-06-16T13:42:42.400Z,40.33
2018-06-16T13:45:13.067Z,40.19
2018-06-16T13:47:43.242Z,40.55
2018-06-16T13:50:14.278Z,40.75
2018-06-16T13:52:44.689Z,40.13
2018-06-16T13:55:15.189Z,40.33
2018-06-16T13:57:45.571Z,41.17
2018-06-16T14:00:16.456Z,41.50
2018-06-16T14:02:46.891Z,41.51
2018-06-16T14:05:17.219Z,41.04
2018-06-16T14:07:47.624Z,41.94
2018-06-16T14:10:18.286Z,42.35
2018-06-16T14:12:48.707Z,42.87
2018-06-16T14:15:19.609Z,43.24
2018-06-16T14:17:50.597Z,42.63
2018-06-16T14:20:21.249Z,42.96
2018-06-16T14:22:51.447Z,43.06
2018-06-16T14:25:22.148Z,42.51
2018-06-16T14:27:53.087Z,43.25
2018-06-16T14:30:23.846Z,43.23
2018-06-16T14:32:54.209Z,43.64
2018-06-16T14:35:24.453Z,42.24
2018-06-16T14:37:54.932Z,42.51
2018-06-16T14:40:25.875Z,43.46
2018-06-16T14:42:56.800Z,43.09
2018-06-16T14:45:28.904Z,42.50
2018-06-16T14:47:59.113Z,42.48
2018-06-16T14:50:29.818Z,41.93
2018-06-16T14:53:00.100Z,42.49
2018-06-16T14:55:30.273Z,42.24
2018-06-16T14:58:00.788Z,41.75
2018-06-16T15:00:37.855Z,41.50
2018-06-16T15:03:08.500Z,42.16
2018-06-16T15:05:38.902Z,42.07
2018-06-16T15:08:09.298Z,41.90
2018-06-16T15:10:39.547Z,42.09
2018-06-16T15:13:10.161Z,42.33
2018-06-16T15:15:41.089Z,41.89
2018-06-16T15:18:11.447Z,42.37
2018-06-16T15:20:42.828Z,42.11
2018-06-16T15:23:14.000Z,41.81
2018-06-16T15:25:44.403Z,42.58
2018-06-16T15:28:14.892Z,42.62
2018-06-16T15:30:45.206Z,41.66
2018-06-16T15:33:15.694Z,41.72
2018-06-16T15:35:46.144Z,42.43
2018-06-16T15:38:16.662Z,42.52
2018-06-16T15:40:47.064Z,42.11
2018-06-16T15:43:17.452Z,42.40
2018-06-16T15:45:48.519Z,42.01
2018-06-16T15:48:18.896Z,43.01
2018-06-16T15:50:49.345Z,42.45
2018-06-16T15:53:20.686Z,43.30
2018-06-16T15:55:51.131Z,43.04
2018-06-16T15:58:21.615Z,42.83
2018-06-16T16:00:52.742Z,43.39
2018-06-16T16:03:23.098Z,43.66
2018-06-16T16:05:53.908Z,44.58
2018-06-16T16:08:24.531Z,44.95
2018-06-16T16:10:55.181Z,44.02
2018-06-16T16:13:31.673Z,44.96
2018-06-16T16:16:01.886Z,44.60
2018-06-16T16:18:33.106Z,44.28
2018-06-16T16:21:03.580Z,44.24
2018-06-16T16:23:33.947Z,44.05
2018-06-16T16:26:04.566Z,44.72
2018-06-16T16:28:35.136Z,44.50
2018-06-16T16:31:05.476Z,43.98
2018-06-16T16:33:35.825Z,44.63
2018-06-16T16:36:06.390Z,44.39
2018-06-16T16:38:36.762Z,43.82
2018-06-16T16:41:07.286Z,44.28
2018-06-16T16:43:37.377Z,46.75
2018-06-16T16:46:07.735Z,47.41
2018-06-16T16:48:38.232Z,47.98
2018-06-16T16:51:09.288Z,49.33
2018-06-16T16:53:42.328Z,49.57
2018-06-16T16:56:12.746Z,49.13
2018-06-16T16:58:42.897Z,49.44
2018-06-16T17:01:13.234Z,50.23
2018-06-16T17:03:44.682Z,50.46
2018-06-16T17:06:15.022Z,50.45
2018-06-16T17:08:45.219Z,50.10
2018-06-16T17:11:15.536Z,50.65
2018-06-16T17:13:45.875Z,50.44
2018-06-16T17:16:16.316Z,50.08
2018-06-16T17:18:46.423Z,50.04
2018-06-16T17:21:17.354Z,49.93
2018-06-16T17:23:47.603Z,49.23
2018-06-16T17:26:17.799Z,49.12
2018-06-16T17:28:48.086Z,50.05
2018-06-16T17:31:18.537Z,49.54
2018-06-16T17:33:48.594Z,49.60
2018-06-16T17:36:19.108Z,49.63
2018-06-16T17:38:49.840Z,49.53
2018-06-16T17:41:20.467Z,49.36
2018-06-16T17:43:50.923Z,49.68
2018-06-16T17:46:22.418Z,49.95
2018-06-16T17:48:52.924Z,49.90
2018-06-16T17:51:23.287Z,50.72
2018-06-16T17:53:53.932Z,50.59
2018-06-16T17:56:24.103Z,50.33
2018-06-16T17:58:54.543Z,50.49
2018-06-16T18:01:24.927Z,50.53
2018-06-16T18:03:55.492Z,50.17
2018-06-16T18:06:27.347Z,50.38
2018-06-16T18:08:57.827Z,50.62
2018-06-16T18:11:27.961Z,50.76
2018-06-16T18:13:58.273Z,50.62
2018-06-16T18:16:28.730Z,50.14
2018-06-16T18:18:59.275Z,50.36
2018-06-16T18:21:29.734Z,49.67
2018-06-16T18:24:00.050Z,49.38
2018-06-16T18:26:30.282Z,49.82
2018-06-16T18:29:00.652Z,48.74
2018-06-16T18:31:31.596Z,49.19
2018-06-16T18:34:02.061Z,48.85
2018-06-16T18:36:32.528Z,48.93
2018-06-16T18:39:02.911Z,48.46
2018-06-16T18:41:33.506Z,48.73
2018-06-16T18:44:05.898Z,48.70
2018-06-16T18:46:36.742Z,48.24
2018-06-16T18:49:07.023Z,48.98
2018-06-16T18:51:37.353Z,48.40
2018-06-16T18:54:08.149Z,49.16
2018-06-16T18:56:38.311Z,49.05
2018-06-16T18:59:08.890Z,49.51
2018-06-16T19:01:39.402Z,48.56
2018-06-16T19:04:09.580Z,48.95
2018-06-16T19:06:40.188Z,48.99
2018-06-16T19:09:10.375Z,49.10
2018-06-16T19:11:41.226Z,49.01
2018-06-16T19:14:11.548Z,49.27
2018-06-16T19:16:42.868Z,49.32
2018-06-16T19:19:13.174Z,48.70
2018-06-16T19:21:43.362Z,49.39
2018-06-16T19:24:15.047Z,49.21
2018-06-16T19:26:45.421Z,49.58
2018-06-16T19:29:16.305Z,48.79
2018-06-16T19:31:48.515Z,48.95
2018-06-16T19:34:18.956Z,48.77
2018-06-16T19:36:49.120Z,48.99
2018-06-16T19:39:19.510Z,49.70
2018-06-16T19:41:49.689Z,49.19
2018-06-16T19:44:19.912Z,49.63
2018-06-16T19:46:50.277Z,49.98
2018-06-16T19:49:20.641Z,49.24
2018-06-16T19:51:50.909Z,49.84
2018-06-16T19:54:22.179Z,50.79
2018-06-16T19:56:52.516Z,50.11
2018-06-16T19:59:22.850Z,50.59
2018-06-16T20:01:53.319Z,50.90
2018-06-16T20:04:24.311Z,50.92
2018-06-16T20:06:54.459Z,50.63
2018-06-16T20:09:24.931Z,51.19
2018-06-16T20:11:55.250Z,51.10
2018-06-16T20:14:26.674Z,51.40
2018-06-16T20:16:57.176Z,51.29
2018-06-16T20:19:28.248Z,50.94
2018-06-16T20:21:58.813Z,51.06
2018-06-16T20:24:28.983Z,51.60
2018-06-16T20:26:59.140Z,51.39
2018-06-16T20:29:29.762Z,51.23
2018-06-16T20:32:00.113Z,51.51
2018-06-16T20:34:30.790Z,51.77
2018-06-16T20:37:01.204Z,52.24
2018-06-16T20:39:32.177Z,52.10
2018-06-16T20:42:02.556Z,52.41
2018-06-16T20:44:33.035Z,51.92
2018-06-16T20:47:03.529Z,52.18
2018-06-16T20:49:33.835Z,52.35
2018-06-16T20:52:04.105Z,52.50
2018-06-16T20:54:34.328Z,53.31
2018-06-16T20:57:04.780Z,53.89
2018-06-16T20:59:35.100Z,54.96
2018-06-16T21:02:05.563Z,55.42
2018-06-16T21:04:35.993Z,55.20
2018-06-16T21:07:06.421Z,55.78
2018-06-16T21:09:37.326Z,55.35
2018-06-16T21:12:07.870Z,55.71
2018-06-16T21:14:38.261Z,55.94
2018-06-16T21:17:08.793Z,56.00
2018-06-16T21:19:39.473Z,56.13
2018-06-16T21:22:10.105Z,55.82
2018-06-16T21:24:40.599Z,55.99
2018-06-16T21:27:11.534Z,55.50
2018-06-16T21:29:41.792Z,55.34
2018-06-16T21:32:13.154Z,55.54
2018-06-16T21:34:44.164Z,55.23
2018-06-16T21:37:15.741Z,55.38
2018-06-16T21:39:45.942Z,55.08
2018-06-16T21:42:15.990Z,55.07
2018-06-16T21:44:46.290Z,54.93
2018-06-16T21:47:16.586Z,55.55
2018-06-16T21:49:46.997Z,55.72
2018-06-16T21:52:18.369Z,56.16
2018-06-16T21:54:49.076Z,55.76
2018-06-16T21:57:19.739Z,56.02
2018-06-16T21:59:53.292Z,56.79
2018-06-16T22:02:23.670Z,56.65
2018-06-16T22:04:54.371Z,56.56
2018-06-16T22:07:24.766Z,57.47
2018-06-16T22:09:56.040Z,57.04
2018-06-16T22:12:26.328Z,57.35
2018-06-16T22:14:56.869Z,57.43
2018-06-16T22:17:27.795Z,57.91
2018-06-16T22:19:58.161Z,57.74
2018-06-16T22:25:04.147Z,58.06
2018-06-16T22:27:34.651Z,58.11
2018-06-16T22:30:05.121Z,58.07
2018-06-16T22:32:35.313Z,57.87
2018-06-16T22:35:11.911Z,57.82
2018-06-16T22:37:42.340Z,57.38
2018-06-16T22:40:14.042Z,57.73
2018-06-16T22:42:44.270Z,57.92
2018-06-16T22:45:16.860Z,57.71
2018-06-16T22:47:47.824Z,57.30
2018-06-16T22:50:20.064Z,57.58
2018-06-16T22:52:51.042Z,57.76
2018-06-16T22:55:21.917Z,57.92
2018-06-16T22:57:52.058Z,57.93
2018-06-16T23:00:25.102Z,58.14
2018-06-16T23:02:55.591Z,58.97
2018-06-16T23:05:26.212Z,59.17
2018-06-16T23:07:56.814Z,58.89
2018-06-16T23:10:27.316Z,59.61
2018-06-16T23:12:57.764Z,59.70
2018-06-16T23:15:28.581Z,59.90
2018-06-16T23:18:03.432Z,60.14
2018-06-16T23:20:33.816Z,60.34
2018-06-16T23:23:03.901Z,60.10
2018-06-16T23:25:36.721Z,60.10
2018-06-16T23:28:07.097Z,60.83
2018-06-16T23:30:37.343Z,60.58
2018-06-16T23:33:07.547Z,60.53
2018-06-16T23:35:37.868Z,60.83
2018-06-16T23:38:09.772Z,61.45
2018-06-16T23:40:40.411Z,61.01
2018-06-16T23:43:10.520Z,61.29
2018-06-16T23:45:40.787Z,61.41
2018-06-16T23:48:11.130Z,61.72
2018-06-16T23:50:42.315Z,61.95
2018-06-16T23:53:13.508Z,61.96
2018-06-16T23:55:48.740Z,62.19
2018-06-16T23:58:19.057Z,62.08
